Time;durP1;ratioP1;P1;durP2;ratioP2;P2;SDS_P1;SDS_P2;PMS_P1;PMS_P2;Temp;Humidity;BMP_temperature;BMP_pressure;BME280_temperature;BME280_humidity;BME280_pressure;Samples;Min_cycle;Max_cycle;Signal;HPM_P1;HPM_P2
2022/12/22 03:28:10;;;;;;;2.08;1.98;;;;;;;;;;5013685;28;20133;-87
2022/12/22 03:30:37;;;;;;;6.28;1.85;;;;;;;;;;5013736;28;20128;-88
2022/12/22 03:33:05;;;;;;;1.85;1.75;;;;;;;;;;5013950;28;20053;-88
2022/12/22 03:35:31;;;;;;;2.60;2.50;;;;;;;;;;5013756;28;20050;-88
2022/12/22 03:38:02;;;;;;;2.67;2.58;;;;;;;;;;5013523;28;20062;-88
2022/12/22 03:40:28;;;;;;;4.75;4.55;;;;;;;;;;5013650;28;20053;-88
2022/12/22 03:48:25;;;;;;;1.08;1.08;;;;;;;;;;5013441;28;20060;-88
2022/12/22 03:50:51;;;;;;;2.20;1.80;;;;;;;;;;5013698;28;20119;-88
2022/12/22 03:53:18;;;;;;;2.25;2.05;;;;;;;;;;5013213;28;20053;-88
2022/12/22 03:55:44;;;;;;;1.88;1.77;;;;;;;;;;5013479;28;20045;-89
2022/12/22 03:58:10;;;;;;;2.78;2.58;;;;;;;;;;5013825;28;20049;-88
2022/12/22 04:00:37;;;;;;;2.38;2.28;;;;;;;;;;5013016;28;20108;-88
2022/12/22 04:03:03;;;;;;;1.98;1.88;;;;;;;;;;5013055;28;20688;-89
2022/12/22 04:05:31;;;;;;;5.05;4.63;;;;;;;;;;5013371;28;20050;-88
2022/12/22 04:07:58;;;;;;;2.28;2.17;;;;;;;;;;5013497;28;20050;-89
2022/12/22 04:13:08;;;;;;;2.22;2.13;;;;;;;;;;5013113;28;20052;-88
2022/12/22 04:15:35;;;;;;;1.77;1.67;;;;;;;;;;5013082;28;20123;-88
2022/12/22 04:18:01;;;;;;;0.90;0.90;;;;;;;;;;5013331;28;20049;-89
2022/12/22 04:20:28;;;;;;;1.00;1.00;;;;;;;;;;5012947;28;20511;-89
2022/12/22 04:22:56;;;;;;;1.13;1.13;;;;;;;;;;5012868;28;20053;-89
2022/12/22 04:25:23;;;;;;;1.33;1.33;;;;;;;;;;5013114;28;20054;-88
2022/12/22 04:27:49;;;;;;;9.93;2.55;;;;;;;;;;5013393;28;20072;-88
2022/12/22 04:30:16;;;;;;;1.83;1.73;;;;;;;;;;5012734;28;20054;-88
2022/12/22 04:32:42;;;;;;;2.55;2.45;;;;;;;;;;5016967;28;20053;-90
2022/12/22 04:35:10;;;;;;;2.25;2.15;;;;;;;;;;5018226;28;20495;-89
2022/12/22 04:37:36;;;;;;;4.50;3.10;;;;;;;;;;5022377;28;20084;-89
2022/12/22 04:40:05;;;;;;;1.73;1.67;;;;;;;;;;5021593;28;20053;-89
2022/12/22 04:42:31;;;;;;;3.15;3.05;;;;;;;;;;5021280;28;20065;-88
2022/12/22 04:44:58;;;;;;;5.32;3.90;;;;;;;;;;5018742;28;20041;-88
2022/12/22 04:47:24;;;;;;;1.52;1.50;;;;;;;;;;5016953;28;20104;-88
2022/12/22 04:49:51;;;;;;;3.00;2.67;;;;;;;;;;5016896;28;20058;-89
2022/12/22 04:52:17;;;;;;;1.63;1.42;;;;;;;;;;5017054;28;20141;-89
2022/12/22 04:54:44;;;;;;;2.70;2.60;;;;;;;;;;5017504;28;20058;-88
2022/12/22 04:57:12;;;;;;;1.80;1.73;;;;;;;;;;5017210;28;20049;-89
2022/12/22 04:59:38;;;;;;;2.58;2.20;;;;;;;;;;5016997;28;20050;-87
2022/12/22 05:02:04;;;;;;;1.70;1.60;;;;;;;;;;5016216;28;20050;-87
2022/12/22 05:04:31;;;;;;;1.13;1.13;;;;;;;;;;5016149;28;20042;-88
2022/12/22 05:06:57;;;;;;;0.82;0.82;;;;;;;;;;5016497;28;20119;-88
2022/12/22 05:09:24;;;;;;;1.42;1.40;;;;;;;;;;5016392;28;20411;-88
2022/12/22 05:11:50;;;;;;;2.35;2.25;;;;;;;;;;5016626;28;20049;-88
2022/12/22 05:14:18;;;;;;;2.33;2.13;;;;;;;;;;5016014;28;20054;-88
2022/12/22 05:16:45;;;;;;;2.17;2.08;;;;;;;;;;5016371;28;20104;-88
2022/12/22 05:19:11;;;;;;;1.85;1.75;;;;;;;;;;5016243;28;20049;-88
2022/12/22 05:21:38;;;;;;;6.13;5.82;;;;;;;;;;5016345;28;20100;-88
2022/12/22 05:24:04;;;;;;;0.90;0.90;;;;;;;;;;5015994;28;20092;-88
2022/12/22 05:26:31;;;;;;;0.45;0.40;;;;;;;;;;5016171;28;20058;-89
2022/12/22 05:28:57;;;;;;;1.77;1.67;;;;;;;;;;5016439;28;20049;-89
2022/12/22 05:31:26;;;;;;;3.72;1.88;;;;;;;;;;5016295;28;20388;-88
2022/12/22 05:33:52;;;;;;;3.22;2.35;;;;;;;;;;5015814;28;20042;-88
2022/12/22 05:36:19;;;;;;;0.80;0.80;;;;;;;;;;5016211;28;20385;-89
2022/12/22 05:38:46;;;;;;;1.45;1.42;;;;;;;;;;5016381;28;20057;-89
2022/12/22 05:41:14;;;;;;;5.95;2.85;;;;;;;;;;5016434;28;20054;-89
2022/12/22 05:43:40;;;;;;;0.68;0.68;;;;;;;;;;5016485;28;20081;-90
2022/12/22 05:46:08;;;;;;;3.40;2.38;;;;;;;;;;5016149;28;20046;-89
2022/12/22 05:48:36;;;;;;;2.33;2.22;;;;;;;;;;5016226;28;20054;-90
2022/12/22 05:51:03;;;;;;;1.48;1.42;;;;;;;;;;5017018;28;20058;-88
2022/12/22 05:53:29;;;;;;;2.15;2.05;;;;;;;;;;5016828;28;20104;-89
2022/12/22 05:55:56;;;;;;;3.15;2.95;;;;;;;;;;5016630;28;20049;-89
2022/12/22 05:58:23;;;;;;;2.95;2.75;;;;;;;;;;5015941;28;20064;-89
2022/12/22 06:00:49;;;;;;;5.15;1.95;;;;;;;;;;5015592;28;20049;-88
2022/12/22 06:03:16;;;;;;;0.80;0.80;;;;;;;;;;5015916;28;20046;-89
2022/12/22 06:05:44;;;;;;;3.40;2.70;;;;;;;;;;5015087;28;20045;-87
2022/12/22 06:08:10;;;;;;;1.30;1.20;;;;;;;;;;5015000;28;20101;-89
2022/12/22 06:10:37;;;;;;;1.48;1.45;;;;;;;;;;5015484;28;20455;-89
2022/12/22 06:13:03;;;;;;;1.48;1.48;;;;;;;;;;5015711;28;20108;-89
2022/12/22 06:15:30;;;;;;;2.10;1.90;;;;;;;;;;5015371;28;20050;-89
2022/12/22 06:17:56;;;;;;;1.15;1.05;;;;;;;;;;5015337;28;20557;-89
2022/12/22 06:20:23;;;;;;;0.57;0.57;;;;;;;;;;5015488;28;20173;-89
2022/12/22 06:22:50;;;;;;;2.75;2.38;;;;;;;;;;5015134;28;20053;-88
2022/12/22 06:25:17;;;;;;;3.13;2.33;;;;;;;;;;5014782;28;20053;-89
2022/12/22 06:27:44;;;;;;;3.17;2.88;;;;;;;;;;5014952;28;20058;-88
2022/12/22 06:30:10;;;;;;;3.00;2.80;;;;;;;;;;5014946;28;20388;-87
2022/12/22 06:32:37;;;;;;;1.67;1.58;;;;;;;;;;5014491;28;20054;-88
2022/12/22 06:35:04;;;;;;;1.13;1.13;;;;;;;;;;5014597;28;20127;-87
2022/12/22 06:37:33;;;;;;;2.97;2.75;;;;;;;;;;5014597;28;20108;-88
2022/12/22 06:40:01;;;;;;;1.50;1.48;;;;;;;;;;5015034;28;20049;-88
2022/12/22 06:45:11;;;;;;;2.50;2.33;;;;;;;;;;5033211;28;20524;-89
2022/12/22 06:47:38;;;;;;;2.30;1.90;;;;;;;;;;5015246;28;20050;-88
2022/12/22 06:50:05;;;;;;;3.15;2.00;;;;;;;;;;5013994;28;20077;-88
2022/12/22 06:52:31;;;;;;;4.78;3.70;;;;;;;;;;5020995;28;20049;-88
2022/12/22 06:54:58;;;;;;;2.70;2.58;;;;;;;;;;5036295;28;20057;-88
2022/12/22 06:57:26;;;;;;;3.10;2.88;;;;;;;;;;5033311;28;20061;-87
2022/12/22 06:59:52;;;;;;;2.72;2.53;;;;;;;;;;5033881;28;20046;-88
2022/12/22 07:02:19;;;;;;;2.05;1.95;;;;;;;;;;5034273;28;20167;-88
2022/12/22 07:04:45;;;;;;;2.72;2.53;;;;;;;;;;5027535;28;20641;-88
2022/12/22 07:07:12;;;;;;;1.05;0.95;;;;;;;;;;5033266;28;20116;-88
2022/12/22 07:09:38;;;;;;;1.33;1.23;;;;;;;;;;5021319;28;20462;-89
2022/12/22 07:12:05;;;;;;;1.48;1.45;;;;;;;;;;5013747;28;20050;-89
2022/12/22 07:14:33;;;;;;;1.70;1.60;;;;;;;;;;5013570;28;20100;-89
2022/12/22 07:16:59;;;;;;;1.95;1.85;;;;;;;;;;5013981;28;20046;-89
2022/12/22 07:19:26;;;;;;;5.43;5.03;;;;;;;;;;5013834;28;20050;-89
2022/12/22 07:21:52;;;;;;;2.90;2.80;;;;;;;;;;5014102;28;20107;-89
2022/12/22 07:24:23;;;;;;;2.20;2.00;;;;;;;;;;5033716;28;20048;-89
2022/12/22 07:26:50;;;;;;;3.22;3.10;;;;;;;;;;5033011;28;20061;-88
2022/12/22 07:29:16;;;;;;;4.93;4.63;;;;;;;;;;5033339;28;20499;-90
2022/12/22 07:31:44;;;;;;;2.63;2.53;;;;;;;;;;5033267;28;20096;-89
2022/12/22 07:34:11;;;;;;;1.50;1.40;;;;;;;;;;5033092;28;20045;-90
2022/12/22 07:36:37;;;;;;;2.67;1.85;;;;;;;;;;5030110;28;20488;-89
2022/12/22 07:39:04;;;;;;;2.85;2.75;;;;;;;;;;5022110;28;20050;-89
2022/12/22 07:44:14;;;;;;;3.53;3.17;;;;;;;;;;5014914;28;20573;-89
2022/12/22 07:46:41;;;;;;;2.38;2.28;;;;;;;;;;5012959;28;20189;-89
2022/12/22 07:51:56;;;;;;;2.97;2.83;;;;;;;;;;5032634;28;20055;-88
2022/12/22 07:54:22;;;;;;;4.90;3.60;;;;;;;;;;5032429;28;20095;-88
2022/12/22 07:56:48;;;;;;;2.80;2.60;;;;;;;;;;5031923;28;20096;-88
2022/12/22 07:59:15;;;;;;;3.92;3.67;;;;;;;;;;5032298;28;20053;-88
2022/12/22 08:01:42;;;;;;;4.70;4.35;;;;;;;;;;5032423;28;20054;-88
2022/12/22 08:04:10;;;;;;;3.40;3.20;;;;;;;;;;5032574;28;20486;-90
2022/12/22 08:06:36;;;;;;;5.63;2.88;;;;;;;;;;5033085;28;20049;-90
2022/12/22 08:09:04;;;;;;;3.90;3.60;;;;;;;;;;5031639;28;20404;-89
2022/12/22 08:11:30;;;;;;;9.57;6.97;;;;;;;;;;5033099;28;20046;-88
2022/12/22 08:13:57;;;;;;;7.45;5.68;;;;;;;;;;5032451;28;20054;-88
2022/12/22 08:16:23;;;;;;;4.07;3.88;;;;;;;;;;5032786;28;20407;-88
2022/12/22 08:18:50;;;;;;;8.32;6.25;;;;;;;;;;5032860;28;20080;-88
2022/12/22 08:21:17;;;;;;;7.50;3.95;;;;;;;;;;5032737;28;20466;-88
2022/12/22 08:23:44;;;;;;;4.47;4.07;;;;;;;;;;5036103;28;20048;-88
2022/12/22 08:26:12;;;;;;;3.95;3.72;;;;;;;;;;5052643;28;20099;-89
2022/12/22 08:28:40;;;;;;;4.70;4.28;;;;;;;;;;5032156;28;20049;-88
2022/12/22 08:31:07;;;;;;;4.97;4.57;;;;;;;;;;5027754;28;20495;-88
2022/12/22 08:33:34;;;;;;;6.47;6.03;;;;;;;;;;5018625;28;20490;-88
2022/12/22 08:36:00;;;;;;;6.10;5.70;;;;;;;;;;5030676;28;20095;-88
2022/12/22 08:38:29;;;;;;;3.58;3.38;;;;;;;;;;5027538;28;20455;-89
2022/12/22 08:40:56;;;;;;;3.85;3.65;;;;;;;;;;5013357;28;20115;-89
2022/12/22 08:43:23;;;;;;;5.90;5.40;;;;;;;;;;5012953;28;20050;-89
2022/12/22 08:45:50;;;;;;;5.50;5.10;;;;;;;;;;5022129;28;20495;-89
2022/12/22 08:48:16;;;;;;;7.57;7.05;;;;;;;;;;5032552;28;20119;-89
2022/12/22 08:50:43;;;;;;;4.40;3.55;;;;;;;;;;5032591;28;20099;-89
2022/12/22 08:53:09;;;;;;;5.80;4.93;;;;;;;;;;5032002;28;20495;-89
2022/12/22 08:55:37;;;;;;;4.63;3.45;;;;;;;;;;5032831;28;20046;-88
2022/12/22 08:58:04;;;;;;;6.13;5.60;;;;;;;;;;5032353;28;20453;-88
2022/12/22 09:00:30;;;;;;;6.75;5.30;;;;;;;;;;5032025;28;20133;-89
2022/12/22 09:02:57;;;;;;;4.60;4.35;;;;;;;;;;5032697;28;20100;-90
2022/12/22 09:05:23;;;;;;;2.30;2.05;;;;;;;;;;5032464;28;20100;-89
2022/12/22 09:07:50;;;;;;;3.55;3.38;;;;;;;;;;5028384;28;20041;-89
2022/12/22 09:10:16;;;;;;;2.78;2.58;;;;;;;;;;5012620;28;20100;-89
2022/12/22 09:12:46;;;;;;;7.00;5.03;;;;;;;;;;5012947;28;20092;-90
2022/12/22 09:15:13;;;;;;;6.20;5.68;;;;;;;;;;5012757;28;20050;-89
2022/12/22 09:17:41;;;;;;;2.88;2.78;;;;;;;;;;5013073;28;20049;-90
2022/12/22 09:20:08;;;;;;;4.13;3.90;;;;;;;;;;5013501;28;20054;-88
2022/12/22 09:22:35;;;;;;;4.93;4.63;;;;;;;;;;5028688;28;20045;-88
2022/12/22 09:25:01;;;;;;;6.80;3.63;;;;;;;;;;5036080;28;20491;-89
2022/12/22 09:27:29;;;;;;;3.30;2.95;;;;;;;;;;5036327;28;20179;-89
2022/12/22 09:29:57;;;;;;;6.50;5.15;;;;;;;;;;5035742;28;20107;-89
2022/12/22 09:32:24;;;;;;;5.30;4.50;;;;;;;;;;5036097;28;20399;-89
2022/12/22 09:34:50;;;;;;;4.43;4.13;;;;;;;;;;5035619;28;20104;-88
2022/12/22 09:37:17;;;;;;;2.63;2.53;;;;;;;;;;5035294;28;20069;-88
2022/12/22 09:39:43;;;;;;;2.88;2.67;;;;;;;;;;5034593;28;20548;-88
2022/12/22 09:42:13;;;;;;;4.95;4.15;;;;;;;;;;5056074;28;20104;-88
2022/12/22 09:44:40;;;;;;;3.22;3.05;;;;;;;;;;5056040;28;20049;-88
2022/12/22 09:47:12;;;;;;;5.63;5.32;;;;;;;;;;5056366;28;20053;-89
2022/12/22 09:49:39;;;;;;;6.72;6.13;;;;;;;;;;5041183;28;20057;-89
2022/12/22 09:52:06;;;;;;;6.05;5.55;;;;;;;;;;5035877;28;20054;-88
2022/12/22 09:54:32;;;;;;;7.15;3.53;;;;;;;;;;5035310;28;20099;-90
2022/12/22 09:56:59;;;;;;;2.60;2.03;;;;;;;;;;5035429;28;20497;-88
2022/12/22 09:59:27;;;;;;;4.68;4.38;;;;;;;;;;5035343;28;20050;-90
2022/12/22 10:02:15;;;;;;;1.85;1.75;;;;;;;;;;5035592;28;20041;-89
2022/12/22 10:04:49;;;;;;;5.72;4.88;;;;;;;;;;5020433;28;20462;-90
2022/12/22 10:07:22;;;;;;;10.70;4.25;;;;;;;;;;5015471;28;20495;-89
2022/12/22 10:09:48;;;;;;;2.08;1.98;;;;;;;;;;5015899;28;20112;-89
2022/12/22 10:12:16;;;;;;;3.65;3.45;;;;;;;;;;5015529;28;20050;-89
2022/12/22 10:14:44;;;;;;;3.92;2.90;;;;;;;;;;5029870;28;20060;-89
2022/12/22 10:17:15;;;;;;;4.43;3.47;;;;;;;;;;5035131;28;20629;-90
2022/12/22 10:19:42;;;;;;;5.20;3.47;;;;;;;;;;5021310;28;20120;-90
2022/12/22 10:22:18;;;;;;;5.63;5.32;;;;;;;;;;5023390;28;20115;-89
2022/12/22 10:24:44;;;;;;;4.55;3.80;;;;;;;;;;5034875;28;20107;-89
2022/12/22 10:27:11;;;;;;;5.82;3.58;;;;;;;;;;5035476;28;20053;-90
2022/12/22 10:29:38;;;;;;;7.38;6.72;;;;;;;;;;5029960;28;20122;-91
2022/12/22 10:32:11;;;;;;;4.90;4.50;;;;;;;;;;5034134;28;20065;-88
2022/12/22 10:34:43;;;;;;;7.57;6.30;;;;;;;;;;5034608;28;20057;-89
2022/12/22 10:37:10;;;;;;;5.30;4.63;;;;;;;;;;5034394;28;20057;-88
2022/12/22 10:39:39;;;;;;;8.68;6.85;;;;;;;;;;5034620;28;20471;-88
2022/12/22 10:42:08;;;;;;;7.20;6.75;;;;;;;;;;5034953;28;20057;-88
2022/12/22 10:44:36;;;;;;;5.75;5.25;;;;;;;;;;5022453;28;20050;-90
2022/12/22 10:47:11;;;;;;;4.40;4.10;;;;;;;;;;5014850;28;20085;-89
2022/12/22 10:49:40;;;;;;;6.50;5.90;;;;;;;;;;5014844;28;20112;-90
2022/12/22 10:52:11;;;;;;;5.28;4.78;;;;;;;;;;5014368;28;20092;-88
2022/12/22 10:54:39;;;;;;;7.80;6.10;;;;;;;;;;5018544;28;20499;-88
2022/12/22 10:57:20;;;;;;;5.30;4.80;;;;;;;;;;5025637;28;20059;-89
2022/12/22 10:59:48;;;;;;;5.95;5.45;;;;;;;;;;5027242;28;20107;-88
2022/12/22 11:02:24;;;;;;;11.13;4.32;;;;;;;;;;5034059;28;20056;-88
2022/12/22 11:04:53;;;;;;;6.22;5.20;;;;;;;;;;5034287;28;20111;-88
2022/12/22 11:07:19;;;;;;;5.00;4.55;;;;;;;;;;5033807;28;20072;-88
2022/12/22 11:09:46;;;;;;;5.10;4.68;;;;;;;;;;5033973;28;20564;-89
2022/12/22 11:12:15;;;;;;;7.38;4.70;;;;;;;;;;5034289;28;20045;-88
2022/12/22 11:14:49;;;;;;;6.10;5.60;;;;;;;;;;5021862;28;20054;-89
2022/12/22 11:17:19;;;;;;;4.80;4.18;;;;;;;;;;5018031;28;20045;-89
2022/12/22 11:19:51;;;;;;;6.70;6.15;;;;;;;;;;5029730;28;20052;-89
2022/12/22 11:22:26;;;;;;;5.63;4.85;;;;;;;;;;5033588;28;20577;-89
2022/12/22 11:25:01;;;;;;;3.50;3.30;;;;;;;;;;5032172;28;20553;-89
2022/12/22 11:27:33;;;;;;;5.13;4.45;;;;;;;;;;5033996;28;20061;-89
2022/12/22 11:30:09;;;;;;;10.10;7.07;;;;;;;;;;5019857;28;20049;-89
2022/12/22 11:32:48;;;;;;;2.78;2.60;;;;;;;;;;5031351;28;20045;-89
2022/12/22 11:35:19;;;;;;;5.10;4.72;;;;;;;;;;5028241;28;20050;-89
2022/12/22 11:37:49;;;;;;;5.30;4.90;;;;;;;;;;5014228;28;20112;-89
2022/12/22 11:40:19;;;;;;;6.88;6.28;;;;;;;;;;5032864;28;20088;-89
2022/12/22 11:42:52;;;;;;;8.10;7.65;;;;;;;;;;5036692;28;20057;-89
2022/12/22 11:45:31;;;;;;;6.43;5.85;;;;;;;;;;5041132;28;20111;-89
2022/12/22 11:48:01;;;;;;;4.90;4.55;;;;;;;;;;5036418;28;20111;-89
2022/12/22 11:50:37;;;;;;;8.13;7.47;;;;;;;;;;5033497;28;20049;-89
2022/12/22 11:53:18;;;;;;;6.25;5.50;;;;;;;;;;5013765;28;20050;-89
2022/12/22 11:55:47;;;;;;;7.53;6.90;;;;;;;;;;5032528;28;20555;-89
2022/12/22 11:58:22;;;;;;;4.97;4.20;;;;;;;;;;5053449;28;20045;-88
2022/12/22 12:00:52;;;;;;;11.07;7.70;;;;;;;;;;5051039;28;20095;-89
2022/12/22 12:03:30;;;;;;;5.80;5.28;;;;;;;;;;5038655;28;20057;-89
2022/12/22 12:06:04;;;;;;;10.70;8.07;;;;;;;;;;5041146;28;20099;-90
2022/12/22 12:08:38;;;;;;;9.63;5.65;;;;;;;;;;5033313;28;20096;-89
2022/12/22 12:11:16;;;;;;;7.30;6.80;;;;;;;;;;5036431;28;20122;-88
2022/12/22 12:13:46;;;;;;;3.13;2.92;;;;;;;;;;5052645;28;20095;-88
2022/12/22 12:16:17;;;;;;;6.00;5.57;;;;;;;;;;5039427;28;20049;-88
2022/12/22 12:19:03;;;;;;;5.47;5.07;;;;;;;;;;5049531;28;20087;-87
2022/12/22 12:21:30;;;;;;;8.23;7.53;;;;;;;;;;5039628;28;20098;-87
2022/12/22 12:24:08;;;;;;;8.93;6.57;;;;;;;;;;5041425;28;20053;-87
2022/12/22 12:26:37;;;;;;;6.80;4.97;;;;;;;;;;5048552;28;20091;-88
2022/12/22 12:29:11;;;;;;;5.68;5.18;;;;;;;;;;5020795;28;20056;-87
2022/12/22 12:31:39;;;;;;;9.80;8.90;;;;;;;;;;5044096;28;20053;-88
2022/12/22 12:34:10;;;;;;;19.58;7.30;;;;;;;;;;5045109;28;20445;-88
2022/12/22 12:36:40;;;;;;;6.57;6.15;;;;;;;;;;5047045;28;20054;-87
2022/12/22 12:39:12;;;;;;;7.97;7.03;;;;;;;;;;5046394;28;20055;-87
2022/12/22 12:41:44;;;;;;;7.15;6.03;;;;;;;;;;5040459;28;20670;-86
2022/12/22 12:44:12;;;;;;;7.45;6.85;;;;;;;;;;5038883;28;20053;-87
2022/12/22 12:46:52;;;;;;;9.85;8.90;;;;;;;;;;5032617;28;20748;-87
2022/12/22 12:49:37;;;;;;;8.18;6.93;;;;;;;;;;5046413;28;20080;-87
2022/12/22 12:52:04;;;;;;;7.82;7.22;;;;;;;;;;5032050;28;20053;-87
2022/12/22 12:54:36;;;;;;;8.50;7.80;;;;;;;;;;5032761;28;20045;-87
2022/12/22 12:57:10;;;;;;;9.68;8.07;;;;;;;;;;5023629;28;20110;-87
2022/12/22 12:59:45;;;;;;;6.03;4.80;;;;;;;;;;5046660;28;20667;-88
2022/12/22 13:02:27;;;;;;;6.57;5.93;;;;;;;;;;5021873;28;20499;-88
2022/12/22 13:05:09;;;;;;;6.03;4.75;;;;;;;;;;5036066;28;20178;-87
2022/12/22 13:07:54;;;;;;;11.85;7.00;;;;;;;;;;5035743;28;20529;-88
2022/12/22 13:10:23;;;;;;;15.68;7.72;;;;;;;;;;5036330;28;20111;-87
2022/12/22 13:12:51;;;;;;;7.15;6.43;;;;;;;;;;5036457;28;20054;-87
2022/12/22 13:15:29;;;;;;;6.65;6.07;;;;;;;;;;5041770;28;20059;-87
2022/12/22 13:17:55;;;;;;;6.93;6.38;;;;;;;;;;5056171;28;20049;-87
2022/12/22 13:20:24;;;;;;;8.25;7.55;;;;;;;;;;5055762;28;20052;-88
2022/12/22 13:22:52;;;;;;;5.85;5.35;;;;;;;;;;5055820;28;20111;-88
2022/12/22 13:25:18;;;;;;;7.15;5.47;;;;;;;;;;5046322;28;20103;-88
2022/12/22 13:27:47;;;;;;;7.93;6.13;;;;;;;;;;5035635;28;20045;-88
2022/12/22 13:30:15;;;;;;;6.60;6.05;;;;;;;;;;5035010;28;20557;-88
2022/12/22 13:32:43;;;;;;;6.20;5.82;;;;;;;;;;5035160;28;20053;-88
2022/12/22 13:35:15;;;;;;;5.05;4.65;;;;;;;;;;5034657;28;20050;-87
2022/12/22 13:37:44;;;;;;;6.28;5.68;;;;;;;;;;5014866;28;20063;-88
2022/12/22 13:40:12;;;;;;;5.97;5.47;;;;;;;;;;5034097;28;20049;-88
2022/12/22 13:42:40;;;;;;;5.13;4.70;;;;;;;;;;5055197;28;20057;-87
2022/12/22 13:45:13;;;;;;;9.18;8.07;;;;;;;;;;5055283;28;20098;-87
2022/12/22 13:47:40;;;;;;;7.25;4.80;;;;;;;;;;5055052;28;20045;-87
2022/12/22 13:50:09;;;;;;;7.75;6.22;;;;;;;;;;5049251;28;20041;-87
2022/12/22 13:52:35;;;;;;;8.35;5.28;;;;;;;;;;5035406;28;20453;-87
2022/12/22 13:55:02;;;;;;;6.07;5.68;;;;;;;;;;5035135;28;20049;-87
2022/12/22 13:57:28;;;;;;;4.15;3.63;;;;;;;;;;5035252;28;20107;-87
2022/12/22 13:59:55;;;;;;;7.15;6.63;;;;;;;;;;5037875;28;20087;-88
2022/12/22 14:02:23;;;;;;;7.82;7.13;;;;;;;;;;5055032;28;20048;-87
2022/12/22 14:05:03;;;;;;;5.38;4.97;;;;;;;;;;5055158;28;20136;-88
2022/12/22 14:07:29;;;;;;;7.75;7.05;;;;;;;;;;5053617;28;20154;-88
2022/12/22 14:09:56;;;;;;;7.80;5.07;;;;;;;;;;5051531;28;20073;-87
2022/12/22 14:12:23;;;;;;;4.43;3.55;;;;;;;;;;5034923;28;20049;-88
2022/12/22 14:14:50;;;;;;;5.85;5.15;;;;;;;;;;5034757;28;20103;-87
2022/12/22 14:17:20;;;;;;;5.57;5.07;;;;;;;;;;5034950;28;20053;-88
2022/12/22 14:19:49;;;;;;;5.25;3.33;;;;;;;;;;5034446;28;20411;-88
2022/12/22 14:22:16;;;;;;;8.90;6.20;;;;;;;;;;5034762;28;20100;-87
2022/12/22 14:24:45;;;;;;;6.15;5.65;;;;;;;;;;5033811;28;20045;-88
2022/12/22 14:27:17;;;;;;;7.60;4.68;;;;;;;;;;5014539;28;20046;-87
2022/12/22 14:29:44;;;;;;;5.45;4.95;;;;;;;;;;5049634;28;20498;-87
2022/12/22 14:32:12;;;;;;;4.78;4.43;;;;;;;;;;5039107;28;20074;-87
2022/12/22 14:34:38;;;;;;;6.80;4.05;;;;;;;;;;5044782;28;20065;-88
2022/12/22 14:37:09;;;;;;;4.47;4.07;;;;;;;;;;5033802;28;20049;-87
2022/12/22 14:39:35;;;;;;;2.45;2.08;;;;;;;;;;5050275;28;20453;-88
2022/12/22 14:42:03;;;;;;;5.47;4.88;;;;;;;;;;5034725;28;20041;-87
2022/12/22 14:44:31;;;;;;;7.80;7.10;;;;;;;;;;5033400;28;20111;-87
2022/12/22 14:47:14;;;;;;;6.45;6.05;;;;;;;;;;5033448;28;20046;-87
2022/12/22 14:49:45;;;;;;;4.47;4.18;;;;;;;;;;5033184;28;20530;-87
2022/12/22 14:52:18;;;;;;;7.30;3.78;;;;;;;;;;5033876;28;20454;-87
2022/12/22 14:54:45;;;;;;;4.10;3.78;;;;;;;;;;5033908;28;20053;-87
2022/12/22 14:57:17;;;;;;;6.35;4.18;;;;;;;;;;5035804;28;20513;-87
2022/12/22 14:59:43;;;;;;;;;;;;;;;;;;5043908;28;20406;-87
2022/12/22 15:02:20;;;;;;;4.13;3.85;;;;;;;;;;5015276;28;19921;-87
2022/12/22 15:04:46;;;;;;;4.78;4.38;;;;;;;;;;5013976;28;20103;-87
2022/12/22 15:07:17;;;;;;;2.28;1.92;;;;;;;;;;5019555;28;20045;-87
2022/12/22 15:09:43;;;;;;;6.10;3.63;;;;;;;;;;5033599;28;20491;-87
2022/12/22 15:12:11;;;;;;;2.85;2.65;;;;;;;;;;5033852;28;20111;-87
2022/12/22 15:14:38;;;;;;;3.88;3.53;;;;;;;;;;5033418;28;20388;-87
2022/12/22 15:17:05;;;;;;;7.30;3.67;;;;;;;;;;5033751;28;20050;-87
2022/12/22 15:19:33;;;;;;;3.65;3.35;;;;;;;;;;5033125;28;20049;-87
2022/12/22 15:22:00;;;;;;;3.72;3.42;;;;;;;;;;5033691;28;20053;-86
2022/12/22 15:24:28;;;;;;;5.80;5.03;;;;;;;;;;5033030;28;20486;-87
2022/12/22 15:26:54;;;;;;;5.57;4.18;;;;;;;;;;5013409;28;20104;-87
2022/12/22 15:29:21;;;;;;;4.78;4.50;;;;;;;;;;5013764;28;20054;-88
2022/12/22 15:31:47;;;;;;;2.72;2.53;;;;;;;;;;5013427;28;20551;-87
2022/12/22 15:34:16;;;;;;;2.10;1.73;;;;;;;;;;5013330;28;20053;-87
2022/12/22 15:36:43;;;;;;;3.50;3.30;;;;;;;;;;5050435;28;20045;-87
2022/12/22 15:39:13;;;;;;;5.57;5.13;;;;;;;;;;5052676;28;20057;-87
2022/12/22 15:41:41;;;;;;;6.80;5.20;;;;;;;;;;5052869;28;20056;-87
2022/12/22 15:44:07;;;;;;;3.65;3.40;;;;;;;;;;5052877;28;20514;-87
2022/12/22 15:46:34;;;;;;;4.88;4.65;;;;;;;;;;5053115;28;20041;-88
2022/12/22 15:49:01;;;;;;;2.92;2.72;;;;;;;;;;5052943;28;20098;-87
2022/12/22 15:51:29;;;;;;;9.48;2.45;;;;;;;;;;5052762;28;20045;-87
2022/12/22 15:53:57;;;;;;;5.85;4.50;;;;;;;;;;5041031;28;20152;-87
2022/12/22 15:56:24;;;;;;;4.28;3.92;;;;;;;;;;5033031;28;20079;-88
2022/12/22 15:58:53;;;;;;;4.43;4.15;;;;;;;;;;5052434;28;20052;-88
2022/12/22 16:01:19;;;;;;;5.57;5.22;;;;;;;;;;5052665;28;20092;-87
2022/12/22 16:03:46;;;;;;;3.30;3.10;;;;;;;;;;5052880;28;20132;-88
2022/12/22 16:06:13;;;;;;;3.90;3.60;;;;;;;;;;5044693;28;20045;-88
2022/12/22 16:08:40;;;;;;;4.53;4.25;;;;;;;;;;5032025;28;20413;-88
2022/12/22 16:11:08;;;;;;;2.78;2.58;;;;;;;;;;5032927;28;20407;-88
2022/12/22 16:13:36;;;;;;;1.40;1.35;;;;;;;;;;5032351;28;20137;-88
2022/12/22 16:16:04;;;;;;;6.50;6.03;;;;;;;;;;5031824;28;20418;-88
2022/12/22 16:18:30;;;;;;;4.97;4.57;;;;;;;;;;5047467;28;20053;-87
2022/12/22 16:20:59;;;;;;;2.25;2.15;;;;;;;;;;5047360;28;20099;-87
2022/12/22 16:23:26;;;;;;;3.88;3.60;;;;;;;;;;5032193;28;20411;-87
2022/12/22 16:25:57;;;;;;;7.50;4.45;;;;;;;;;;5033080;28;20092;-87
2022/12/22 16:28:25;;;;;;;3.53;2.90;;;;;;;;;;5032549;28;20046;-87
2022/12/22 16:30:51;;;;;;;6.40;5.95;;;;;;;;;;5035622;28;20061;-87
2022/12/22 16:33:20;;;;;;;5.22;4.93;;;;;;;;;;5032957;28;20088;-87
2022/12/22 16:35:46;;;;;;;2.60;2.40;;;;;;;;;;5031489;28;20581;-87
2022/12/22 16:38:13;;;;;;;7.63;6.95;;;;;;;;;;5041741;28;20103;-87
2022/12/22 16:40:40;;;;;;;6.18;5.65;;;;;;;;;;5036380;28;20049;-87
2022/12/22 16:43:11;;;;;;;6.82;5.97;;;;;;;;;;5032503;28;20049;-88
2022/12/22 16:45:38;;;;;;;4.32;4.03;;;;;;;;;;5022478;28;20086;-87
2022/12/22 16:48:06;;;;;;;7.95;6.25;;;;;;;;;;5042816;28;20498;-87
2022/12/22 16:50:35;;;;;;;6.43;5.95;;;;;;;;;;5032118;28;20068;-87
2022/12/22 16:53:03;;;;;;;4.35;4.07;;;;;;;;;;5034018;28;20470;-87
2022/12/22 16:55:30;;;;;;;4.70;4.43;;;;;;;;;;5050903;28;20045;-87
2022/12/22 16:58:15;;;;;;;10.88;8.05;;;;;;;;;;5040478;28;20087;-88
2022/12/22 17:00:43;;;;;;;4.78;4.38;;;;;;;;;;5023784;28;20045;-87
2022/12/22 17:03:12;;;;;;;4.65;4.32;;;;;;;;;;5032026;28;20061;-87
2022/12/22 17:05:42;;;;;;;4.93;4.43;;;;;;;;;;5031549;28;20053;-88
2022/12/22 17:08:14;;;;;;;6.93;6.28;;;;;;;;;;5028905;28;20046;-88
2022/12/22 17:10:41;;;;;;;5.25;3.63;;;;;;;;;;5032536;28;20053;-89
2022/12/22 17:13:09;;;;;;;4.78;4.32;;;;;;;;;;5033877;28;20407;-86
2022/12/22 17:15:35;;;;;;;2.40;2.30;;;;;;;;;;5032049;28;20103;-87
2022/12/22 17:18:02;;;;;;;5.43;4.82;;;;;;;;;;5013694;28;20046;-86
2022/12/22 17:20:29;;;;;;;5.50;5.03;;;;;;;;;;5012129;28;20096;-86
2022/12/22 17:22:59;;;;;;;9.32;8.65;;;;;;;;;;5042659;28;20053;-87
2022/12/22 17:25:27;;;;;;;4.40;4.00;;;;;;;;;;5051597;28;20045;-86
2022/12/22 17:27:54;;;;;;;3.97;3.72;;;;;;;;;;5050670;28;20099;-87
2022/12/22 17:30:22;;;;;;;6.38;6.03;;;;;;;;;;5051028;28;20048;-87
2022/12/22 17:32:51;;;;;;;5.82;5.40;;;;;;;;;;5050954;28;20057;-87
2022/12/22 17:35:19;;;;;;;5.45;4.95;;;;;;;;;;5051038;28;20049;-87
2022/12/22 17:37:46;;;;;;;8.40;7.78;;;;;;;;;;5050901;28;20061;-86
2022/12/22 17:40:16;;;;;;;8.40;7.60;;;;;;;;;;5034496;28;20056;-86
2022/12/22 17:42:43;;;;;;;6.18;5.78;;;;;;;;;;5033284;28;20119;-86
2022/12/22 17:45:13;;;;;;;8.15;6.63;;;;;;;;;;5034492;28;20057;-87
2022/12/22 17:47:39;;;;;;;7.75;7.18;;;;;;;;;;5034038;28;20560;-87
2022/12/22 17:50:06;;;;;;;5.95;5.47;;;;;;;;;;5034881;28;20111;-86
2022/12/22 17:52:33;;;;;;;7.00;6.28;;;;;;;;;;5022246;28;20112;-86
2022/12/22 17:55:00;;;;;;;5.50;5.18;;;;;;;;;;5019558;28;20045;-86
2022/12/22 17:57:29;;;;;;;7.03;6.53;;;;;;;;;;5041717;28;20046;-86
2022/12/22 17:59:56;;;;;;;7.30;6.72;;;;;;;;;;5040707;28;20049;-86
2022/12/22 18:02:24;;;;;;;5.13;4.50;;;;;;;;;;5054943;28;20045;-86
2022/12/22 18:04:51;;;;;;;5.63;3.55;;;;;;;;;;5041659;28;20081;-86
2022/12/22 18:07:18;;;;;;;6.32;5.78;;;;;;;;;;5035073;28;20049;-86
2022/12/22 18:09:45;;;;;;;6.07;5.60;;;;;;;;;;5054395;28;20095;-86
2022/12/22 18:12:15;;;;;;;3.45;3.15;;;;;;;;;;5046227;28;20384;-86
2022/12/22 18:14:43;;;;;;;4.43;4.13;;;;;;;;;;5034788;28;20133;-86
2022/12/22 18:17:20;;;;;;;4.55;4.25;;;;;;;;;;5021381;28;20046;-86
2022/12/22 18:19:46;;;;;;;4.43;4.13;;;;;;;;;;5015240;28;20096;-86
2022/12/22 18:22:14;;;;;;;9.45;6.35;;;;;;;;;;5014965;28;20053;-86
2022/12/22 18:24:41;;;;;;;6.60;6.20;;;;;;;;;;5024096;28;20254;-86
2022/12/22 18:27:09;;;;;;;3.78;3.47;;;;;;;;;;5046615;28;20111;-86
2022/12/22 18:29:36;;;;;;;2.85;2.63;;;;;;;;;;5053721;28;20041;-86
2022/12/22 18:32:04;;;;;;;4.75;4.07;;;;;;;;;;5054217;28;20184;-86
2022/12/22 18:34:31;;;;;;;2.83;2.63;;;;;;;;;;5054438;28;20495;-86